Terminal Aerodrome Forecast
Issued by NWS Grand Forks, ND

Home | Current Version | Previous Version | Text Only | Print | Product List | Glossary Off
Versions: 1 2 3 4 5 6 7 8 9 10 11 12 13 14 15 16 17

000
FTUS43 KFGF 191700
TAFFAR
TAF
KFAR 191735Z 1918/2018 20013KT P6SM SCT014
      TEMPO 1918/1919 BKN014
     FM191900 22013KT P6SM SCT100
     FM200000 25012KT P6SM SCT100
     FM200300 29012KT P6SM BKN100
     FM200900 VRB06KT P6SM BKN100=

USA.gov is the U.S. government's official web portal to all federal, state and local government web resources and services.